sim
Sign-in with your pilot id or email,
or register
Callsign
Passwort

Schedule Details

Flight Number: RYR228
Departure: London Stansted Airport (EGSS) at 17:40
Arrival: Olsztyn Mazury Airport (EPSY) at 19:55
Route: Ryanair Passenger Schedule. Enter filed route here before submitting Pirep.

Weather Information
Getting current METAR information for EGSS 161720Z AUTO 27004KT 9999 BKN027 OVC039 06/06 Q1015
Getting current METAR information for EPSY 161730Z 01014KT 9999 -SHSN BKN007 BKN015TCU M11/M14 Q1012

Schedule Frequency

Route Map